Time;durP1;ratioP1;P1;durP2;ratioP2;P2;SDS_P1;SDS_P2;PMS_P1;PMS_P2;Temp;Humidity;BMP_temperature;BMP_pressure;BME280_temperature;BME280_humidity;BME280_pressure;Samples;Min_cycle;Max_cycle;Signal;HPM_P1;HPM_P2
2022/07/26 00:01:32;;;;;;;3.08;0.90;;;;;;;24.76;47.50;101294.34;5074597;28;20043;-71
2022/07/26 00:03:58;;;;;;;3.40;1.10;;;;;;;24.75;47.64;101291.84;5074010;28;20464;-71
2022/07/26 00:06:26;;;;;;;3.40;0.90;;;;;;;24.74;47.62;101301.69;5074567;28;20273;-71
2022/07/26 00:08:54;;;;;;;3.65;0.90;;;;;;;24.73;47.56;101297.31;5074135;28;20027;-71
2022/07/26 00:11:20;;;;;;;3.78;1.05;;;;;;;24.72;47.69;101298.34;5072524;28;20028;-71
2022/07/26 00:13:46;;;;;;;3.20;1.02;;;;;;;24.74;47.49;101304.34;5074000;28;20040;-71
2022/07/26 00:16:12;;;;;;;2.10;0.90;;;;;;;24.75;47.43;101299.84;5074293;28;20127;-71
2022/07/26 00:18:38;;;;;;;2.88;1.00;;;;;;;24.74;47.71;101300.84;5073440;28;20036;-71
2022/07/26 00:21:06;;;;;;;3.45;1.20;;;;;;;24.73;47.36;101302.66;5074243;28;20021;-71
2022/07/26 00:23:31;;;;;;;3.25;0.90;;;;;;;24.73;47.64;101294.66;5072951;28;20048;-71
2022/07/26 00:25:57;;;;;;;2.88;1.30;;;;;;;24.74;47.45;101295.53;5074075;28;20059;-71
2022/07/26 00:28:22;;;;;;;3.70;1.05;;;;;;;24.72;47.52;101300.16;5074232;28;20099;-71
2022/07/26 00:30:47;;;;;;;3.30;1.00;;;;;;;24.71;47.21;101306.50;5073113;28;20372;-71
2022/07/26 00:33:13;;;;;;;2.72;0.85;;;;;;;24.71;47.33;101307.31;5074087;28;20436;-71
2022/07/26 00:35:38;;;;;;;2.28;1.00;;;;;;;24.71;47.60;101301.16;5073557;28;20480;-71
2022/07/26 00:38:03;;;;;;;2.75;0.90;;;;;;;24.72;47.34;101306.34;5073125;28;20063;-71
2022/07/26 00:40:29;;;;;;;2.97;1.10;;;;;;;24.72;47.45;101310.81;5073349;28;20025;-71
2022/07/26 00:42:54;;;;;;;2.63;0.80;;;;;;;24.70;47.29;101300.31;5073844;28;20047;-71
2022/07/26 00:45:20;;;;;;;3.10;0.95;;;;;;;24.71;47.26;101307.31;5073256;28;20068;-71
2022/07/26 00:47:45;;;;;;;2.53;1.00;;;;;;;24.69;47.08;101303.97;5073357;28;20055;-71
2022/07/26 00:50:14;;;;;;;1.93;0.80;;;;;;;24.68;47.26;101315.63;5073680;28;20025;-71
2022/07/26 00:52:45;;;;;;;2.42;1.13;;;;;;;24.65;47.62;101307.13;5072531;28;20796;-71
2022/07/26 00:55:10;;;;;;;4.68;1.70;;;;;;;24.68;47.56;101309.47;5073614;28;20035;-72
2022/07/26 00:57:37;;;;;;;4.70;1.33;;;;;;;24.66;47.23;101308.78;5073268;28;20024;-71
2022/07/26 01:00:05;;;;;;;4.13;1.10;;;;;;;24.66;47.34;101311.44;5072810;28;20407;-71
2022/07/26 01:02:31;;;;;;;2.78;0.90;;;;;;;24.66;47.71;101314.97;5072913;28;20043;-71
2022/07/26 01:04:56;;;;;;;4.20;1.00;;;;;;;24.65;47.58;101301.78;5073369;28;20032;-71
2022/07/26 01:07:22;;;;;;;3.50;1.02;;;;;;;24.67;47.72;101307.78;5072565;28;20043;-71
2022/07/26 01:09:49;;;;;;;2.92;0.90;;;;;;;24.66;47.75;101308.78;5072749;28;20372;-71
2022/07/26 01:12:14;;;;;;;3.88;1.10;;;;;;;24.66;47.44;101306.09;5073199;28;20476;-71
2022/07/26 01:14:43;;;;;;;3.40;1.23;;;;;;;24.66;47.37;101306.97;5071963;28;20044;-71
2022/07/26 01:17:10;;;;;;;3.00;1.00;;;;;;;24.68;47.28;101309.47;5073226;28;20070;-71
2022/07/26 01:19:36;;;;;;;2.95;1.10;;;;;;;24.66;47.52;101303.44;5072993;28;20052;-71
2022/07/26 01:22:01;;;;;;;3.05;1.25;;;;;;;24.66;47.33;101298.09;5072027;28;20064;-71
2022/07/26 01:24:27;;;;;;;3.08;1.10;;;;;;;24.63;47.56;101299.28;5073194;28;20104;-71
2022/07/26 01:26:54;;;;;;;3.60;1.00;;;;;;;24.63;47.42;101300.09;5071801;28;20123;-71
2022/07/26 01:29:20;;;;;;;3.63;0.90;;;;;;;24.63;47.57;101296.63;5072207;28;20033;-71
2022/07/26 01:31:49;;;;;;;5.28;1.08;;;;;;;24.62;47.39;101290.47;5072438;28;20050;-71
2022/07/26 01:34:15;;;;;;;3.28;1.10;;;;;;;24.62;47.72;101297.59;5072194;28;20056;-71
2022/07/26 01:36:40;;;;;;;3.15;1.20;;;;;;;24.61;47.75;101285.28;5072319;28;20064;-71
2022/07/26 01:39:06;;;;;;;4.25;1.15;;;;;;;24.60;47.88;101286.28;5073008;28;20055;-71
2022/07/26 01:41:31;;;;;;;3.15;1.02;;;;;;;24.59;47.95;101281.91;5071854;28;20095;-71
2022/07/26 01:43:57;;;;;;;3.03;0.90;;;;;;;24.59;47.93;101284.59;5072884;28;20021;-71
2022/07/26 01:46:22;;;;;;;4.28;1.20;;;;;;;24.58;47.83;101286.41;5072787;28;20031;-71
2022/07/26 01:48:47;;;;;;;4.65;1.30;;;;;;;24.59;47.82;101298.75;5071619;28;20524;-71
2022/07/26 01:51:12;;;;;;;4.07;1.30;;;;;;;24.59;47.65;101292.56;5072759;28;20036;-71
2022/07/26 01:53:38;;;;;;;3.13;1.17;;;;;;;24.59;47.90;101301.44;5072367;28;20338;-71
2022/07/26 01:56:06;;;;;;;4.85;1.10;;;;;;;24.61;47.82;101301.28;5071878;28;20029;-71
2022/07/26 01:58:31;;;;;;;4.63;1.10;;;;;;;24.61;47.55;101307.44;5072450;28;20070;-68
2022/07/26 02:00:57;;;;;;;2.97;1.00;;;;;;;24.59;48.09;101305.91;5072873;28;20125;-72
2022/07/26 02:03:25;;;;;;;3.10;1.00;;;;;;;24.59;47.65;101306.75;5071823;28;20483;-71
2022/07/26 02:05:50;;;;;;;3.97;1.20;;;;;;;24.59;47.80;101300.56;5072373;28;20272;-71
2022/07/26 02:08:15;;;;;;;3.57;1.10;;;;;;;24.59;47.99;101303.25;5072544;28;20025;-71
2022/07/26 02:13:25;;;;;;;3.42;1.10;;;;;;;24.59;47.72;101305.91;5072508;28;20264;-71
2022/07/26 02:15:51;;;;;;;4.57;1.25;;;;;;;24.58;47.73;101304.25;5071340;28;20109;-71
2022/07/26 02:18:16;;;;;;;3.42;1.30;;;;;;;24.58;48.08;101305.06;5071627;28;20460;-71
2022/07/26 02:20:44;;;;;;;4.18;1.17;;;;;;;24.58;47.65;101301.59;5072225;28;20021;-71
2022/07/26 02:23:09;;;;;;;3.95;0.93;;;;;;;24.57;47.81;101302.56;5072097;28;20020;-71
2022/07/26 02:25:35;;;;;;;3.85;1.20;;;;;;;24.57;47.73;101302.56;5072144;28;20465;-71
2022/07/26 02:28:03;;;;;;;4.43;1.38;;;;;;;24.57;47.73;101308.72;5072514;28;20107;-71
2022/07/26 02:30:28;;;;;;;3.60;1.20;;;;;;;24.57;47.96;101303.38;5071311;28;20024;-71
2022/07/26 02:32:54;;;;;;;6.00;1.45;;;;;;;24.57;47.87;101308.72;5072233;28;20027;-71
2022/07/26 02:35:19;;;;;;;3.10;1.08;;;;;;;24.55;48.18;101308.03;5075107;28;20033;-71
2022/07/26 02:37:44;;;;;;;3.53;1.42;;;;;;;24.56;47.78;101311.50;5075241;28;20031;-71
2022/07/26 02:40:10;;;;;;;5.07;1.20;;;;;;;24.55;47.88;101310.69;5076309;28;20431;-71
2022/07/26 02:42:36;;;;;;;3.28;1.15;;;;;;;24.55;47.91;101315.19;5075742;28;20269;-71
2022/07/26 02:45:04;;;;;;;3.10;1.00;;;;;;;24.55;47.93;101317.84;5075170;28;20043;-71
2022/07/26 02:47:31;;;;;;;2.90;0.90;;;;;;;24.56;48.16;101322.16;5075606;28;20040;-71
2022/07/26 02:49:57;;;;;;;4.72;1.50;;;;;;;24.55;48.06;101320.50;5076093;28;20032;-71
2022/07/26 02:52:22;;;;;;;4.15;1.30;;;;;;;24.55;47.88;101326.66;5075316;28;20043;-71
2022/07/26 02:54:47;;;;;;;4.78;1.40;;;;;;;24.55;48.01;101323.19;5075793;28;20052;-71
2022/07/26 02:57:13;;;;;;;4.78;1.33;;;;;;;24.54;48.27;101324.97;5075879;28;20120;-71
2022/07/26 02:59:38;;;;;;;4.72;1.30;;;;;;;24.55;48.37;101329.34;5074665;28;20479;-71
2022/07/26 03:02:04;;;;;;;4.15;1.30;;;;;;;24.54;48.45;101332.97;5075651;28;20024;-71
2022/07/26 03:04:29;;;;;;;4.43;1.33;;;;;;;24.53;48.36;101326.00;5075657;28;20452;-71
2022/07/26 03:06:54;;;;;;;4.53;1.23;;;;;;;24.52;48.48;101334.97;5074843;28;20327;-72
2022/07/26 03:09:19;;;;;;;4.25;1.30;;;;;;;24.50;48.34;101331.63;5074392;28;20278;-71
2022/07/26 03:11:45;;;;;;;4.93;1.30;;;;;;;24.52;48.45;101337.63;5075347;28;20056;-71
2022/07/26 03:14:10;;;;;;;3.95;1.13;;;;;;;24.52;48.48;101340.28;5074435;28;20845;-71
2022/07/26 03:16:35;;;;;;;4.90;1.38;;;;;;;24.52;48.56;101345.63;5075208;28;20039;-72
2022/07/26 03:19:00;;;;;;;3.70;1.20;;;;;;;24.52;48.25;101345.63;5075480;28;20031;-72
2022/07/26 03:21:26;;;;;;;4.15;1.27;;;;;;;24.51;48.41;101348.44;5074886;28;20056;-72
2022/07/26 03:23:52;;;;;;;4.55;1.38;;;;;;;24.51;48.29;101348.44;5075282;28;20028;-70
2022/07/26 03:26:18;;;;;;;3.88;1.40;;;;;;;24.51;48.65;101357.25;5075177;28;20020;-70
2022/07/26 03:28:43;;;;;;;5.55;1.33;;;;;;;24.49;48.40;101348.59;5074685;28;20098;-70
2022/07/26 03:31:09;;;;;;;5.40;1.50;;;;;;;24.50;48.10;101357.41;5075218;28;20024;-70
2022/07/26 03:33:37;;;;;;;5.53;1.80;;;;;;;24.49;48.24;101351.25;5074018;28;20052;-70
2022/07/26 03:36:03;;;;;;;4.97;1.52;;;;;;;24.49;48.71;101356.59;5075213;28;20108;-70
2022/07/26 03:38:29;;;;;;;3.92;1.40;;;;;;;24.51;48.36;101364.44;5074880;28;20103;-70
2022/07/26 03:40:54;;;;;;;5.15;1.50;;;;;;;24.49;48.28;101364.59;5074355;28;20028;-70
2022/07/26 03:43:19;;;;;;;4.10;1.63;;;;;;;24.50;48.62;101374.25;5075096;28;20021;-70
2022/07/26 03:45:44;;;;;;;4.37;1.30;;;;;;;24.50;48.59;101365.41;5074508;28;20028;-70
2022/07/26 03:48:10;;;;;;;4.20;1.50;;;;;;;24.48;48.31;101370.88;5074299;28;20032;-71
2022/07/26 03:50:36;;;;;;;3.50;1.30;;;;;;;24.49;48.55;101364.59;5074689;28;20028;-70
2022/07/26 03:53:01;;;;;;;4.00;1.30;;;;;;;24.48;48.20;101362.06;5074938;28;20038;-70
2022/07/26 03:58:10;;;;;;;5.22;1.50;;;;;;;24.48;48.75;101370.06;5074784;28;20427;-70
2022/07/26 04:00:35;;;;;;;6.95;1.58;;;;;;;24.47;48.90;101376.38;5074510;28;20033;-70
2022/07/26 04:03:00;;;;;;;4.95;1.60;;;;;;;24.46;48.52;101375.53;5073949;28;20024;-70
2022/07/26 04:05:26;;;;;;;4.10;1.40;;;;;;;24.44;48.70;101373.03;5074632;28;20020;-70
2022/07/26 04:07:51;;;;;;;3.60;1.47;;;;;;;24.43;48.62;101371.38;5074252;28;20278;-70
2022/07/26 04:10:19;;;;;;;4.75;1.73;;;;;;;24.45;48.83;101379.22;5073898;28;20277;-70
2022/07/26 04:12:44;;;;;;;4.00;1.40;;;;;;;24.47;48.47;101376.38;5074047;28;20481;-70
2022/07/26 04:15:14;;;;;;;5.47;1.50;;;;;;;24.47;49.12;101379.03;5074029;28;20135;-70
2022/07/26 04:17:41;;;;;;;7.15;1.70;;;;;;;24.46;48.90;101375.53;5073646;28;20024;-70
2022/07/26 04:20:08;;;;;;;5.00;1.35;;;;;;;24.47;48.62;101379.91;5074676;28;20020;-71
2022/07/26 04:22:34;;;;;;;5.13;1.50;;;;;;;24.45;48.58;101374.72;5073448;28;20472;-70
2022/07/26 04:25:00;;;;;;;6.53;1.60;;;;;;;24.44;48.95;101389.03;5074027;28;20024;-71
2022/07/26 04:27:25;;;;;;;4.82;1.70;;;;;;;24.44;48.58;101389.03;5074047;28;20028;-70
2022/07/26 04:29:50;;;;;;;4.93;1.23;;;;;;;24.45;48.74;101387.22;5073134;28;20486;-70
2022/07/26 04:32:25;;;;;;;3.87;1.40;;;;;;;24.46;48.62;101386.19;5074210;28;20078;-70
2022/07/26 04:34:50;;;;;;;4.72;1.65;;;;;;;24.48;48.95;101392.19;5073702;28;20269;-71
2022/07/26 04:37:15;;;;;;;5.43;1.50;;;;;;;24.48;48.91;101391.38;5073614;28;20161;-70
2022/07/26 04:39:41;;;;;;;5.65;1.70;;;;;;;24.48;48.57;101392.19;5073552;28;20031;-70
2022/07/26 04:42:06;;;;;;;5.00;1.58;;;;;;;24.47;48.55;101390.56;5073929;28;20476;-70
2022/07/26 04:44:31;;;;;;;5.05;1.50;;;;;;;24.47;48.99;101390.56;5072702;28;20036;-70
2022/07/26 04:46:57;;;;;;;4.95;1.50;;;;;;;24.49;48.55;101395.72;5073779;28;20051;-70
2022/07/26 04:49:22;;;;;;;5.70;1.70;;;;;;;24.48;49.06;101388.72;5073706;28;20021;-70
2022/07/26 04:51:47;;;;;;;6.20;1.70;;;;;;;24.49;49.12;101393.88;5072693;28;20399;-70
2022/07/26 04:54:14;;;;;;;5.20;1.50;;;;;;;24.48;49.02;101394.03;5073759;28;20695;-70
2022/07/26 04:56:40;;;;;;;4.95;1.73;;;;;;;24.47;48.77;101392.34;5072508;28;20289;-70
2022/07/26 04:59:05;;;;;;;5.78;1.80;;;;;;;24.47;48.94;101401.22;5073069;28;20078;-70
2022/07/26 05:01:30;;;;;;;4.65;1.58;;;;;;;24.43;48.94;101402.50;5073309;28;20199;-70
2022/07/26 05:03:55;;;;;;;4.97;1.60;;;;;;;24.48;48.80;101405.53;5073189;28;20029;-71
2022/07/26 05:06:23;;;;;;;4.27;1.50;;;;;;;24.48;49.12;101410.84;5072773;28;20036;-71
2022/07/26 05:08:49;;;;;;;4.55;1.50;;;;;;;24.49;48.76;101401.88;5073009;28;20320;-71
2022/07/26 05:11:14;;;;;;;4.85;1.33;;;;;;;24.50;48.79;101402.72;5073198;28;20055;-71
2022/07/26 05:13:39;;;;;;;3.67;1.45;;;;;;;24.50;48.66;101405.38;5071268;28;20040;-70
2022/07/26 05:16:05;;;;;;;4.38;1.55;;;;;;;24.49;48.75;101404.53;5073355;28;20091;-70
2022/07/26 05:18:30;;;;;;;4.95;1.65;;;;;;;24.51;48.91;101415.88;5072883;28;20025;-71
2022/07/26 05:20:58;;;;;;;4.28;1.23;;;;;;;24.51;49.15;101412.38;5072436;28;20028;-71
2022/07/26 05:23:23;;;;;;;3.88;1.50;;;;;;;24.51;49.07;101415.88;5073197;28;20487;-71
2022/07/26 05:25:51;;;;;;;6.55;1.90;;;;;;;24.51;48.92;101421.22;5072666;28;20033;-71
2022/07/26 05:28:17;;;;;;;4.45;1.60;;;;;;;24.51;49.10;101425.72;5073064;28;20376;-71
2022/07/26 05:30:42;;;;;;;4.40;1.50;;;;;;;24.51;49.03;101434.53;5072879;28;20036;-71
2022/07/26 05:33:07;;;;;;;5.03;1.52;;;;;;;24.53;48.92;101440.56;5072313;28;20383;-71
2022/07/26 05:35:33;;;;;;;4.97;1.57;;;;;;;24.54;48.75;101430.72;5072538;28;20025;-71
2022/07/26 05:37:58;;;;;;;4.23;1.90;;;;;;;24.54;48.95;101442.22;5072944;28;20277;-71
2022/07/26 05:40:23;;;;;;;3.87;1.50;;;;;;;24.54;48.97;101436.06;5072119;28;20771;-70
2022/07/26 05:42:48;;;;;;;4.97;1.70;;;;;;;24.55;48.70;101435.91;5072749;28;20273;-70
2022/07/26 05:45:14;;;;;;;4.37;1.67;;;;;;;24.55;49.09;101430.56;5073041;28;20040;-71
2022/07/26 05:47:39;;;;;;;5.60;1.77;;;;;;;24.55;49.30;101440.41;5071848;28;20254;-71
2022/07/26 05:50:05;;;;;;;6.57;2.00;;;;;;;24.55;49.17;101445.75;5072718;28;20027;-70
2022/07/26 05:52:31;;;;;;;4.28;1.52;;;;;;;24.55;49.14;101440.41;5072238;28;20119;-70
2022/07/26 05:54:57;;;;;;;4.40;1.50;;;;;;;24.57;49.12;101451.78;5071950;28;20430;-70
2022/07/26 05:57:22;;;;;;;4.85;1.42;;;;;;;24.57;49.08;101449.13;5072899;28;20578;-74
2022/07/26 05:59:48;;;;;;;5.43;1.60;;;;;;;24.52;48.99;101452.19;5072460;28;20050;-67
2022/07/26 06:02:16;;;;;;;7.72;2.30;;;;;;;24.24;49.65;101462.94;5072052;28;20027;-67
2022/07/26 06:04:41;;;;;;;9.50;2.53;;;;;;;23.90;50.86;101452.88;5072232;28;20027;-67
2022/07/26 06:07:07;;;;;;;6.23;2.13;;;;;;;23.58;51.26;101447.97;5072554;28;20033;-67
2022/07/26 06:09:32;;;;;;;8.80;2.50;;;;;;;23.26;52.14;101446.53;5072865;28;20277;-67
2022/07/26 06:11:57;;;;;;;6.78;2.45;;;;;;;23.07;52.77;101454.53;5075787;28;20039;-66
2022/07/26 06:14:23;;;;;;;7.07;2.70;;;;;;;22.87;53.04;101449.22;5076833;28;20059;-67
2022/07/26 06:16:49;;;;;;;7.32;2.40;;;;;;;22.70;53.92;101453.44;5075857;28;20135;-67
2022/07/26 06:19:17;;;;;;;6.60;2.33;;;;;;;22.55;54.37;101465.47;5076775;28;20021;-67
2022/07/26 06:21:44;;;;;;;7.22;2.28;;;;;;;22.43;54.70;101460.28;5075666;28;20071;-67
2022/07/26 06:24:09;;;;;;;8.18;2.83;;;;;;;22.33;55.43;101461.25;5075732;28;20028;-67
2022/07/26 06:26:35;;;;;;;8.20;2.65;;;;;;;22.26;55.78;101466.22;5077452;28;20419;-65
2022/07/26 06:29:00;;;;;;;7.28;2.50;;;;;;;22.20;54.95;101467.59;5078516;28;20070;-65
2022/07/26 06:31:26;;;;;;;8.07;2.55;;;;;;;22.17;55.22;101469.72;5075704;28;20024;-65
2022/07/26 06:33:51;;;;;;;6.35;2.50;;;;;;;22.14;55.16;101469.97;5076018;28;20387;-65
2022/07/26 06:36:19;;;;;;;5.03;2.20;;;;;;;22.10;55.45;101467.59;5075231;28;20029;-66
2022/07/26 06:38:44;;;;;;;8.05;2.72;;;;;;;22.08;55.54;101466.06;5075855;28;20070;-65
2022/07/26 06:41:09;;;;;;;5.10;2.53;;;;;;;22.06;55.20;101481.25;5076305;28;20028;-64
2022/07/26 06:43:35;;;;;;;7.70;2.60;;;;;;;22.05;55.57;101474.28;5075339;28;20038;-64
2022/07/26 06:46:00;;;;;;;7.40;2.55;;;;;;;22.02;55.47;101475.41;5076148;28;20285;-64
2022/07/26 06:48:25;;;;;;;10.20;2.58;;;;;;;22.04;55.93;101472.59;5075950;28;20028;-64
2022/07/26 06:50:54;;;;;;;6.50;2.30;;;;;;;22.06;55.98;101482.13;5029874;28;20131;-64
2022/07/26 06:53:19;;;;;;;7.93;2.80;;;;;;;22.08;55.50;101482.00;5075735;28;20036;-65
2022/07/26 06:55:45;;;;;;;7.03;2.10;;;;;;;22.07;55.16;101489.09;5075565;28;20036;-65
2022/07/26 06:58:10;;;;;;;7.70;2.50;;;;;;;22.07;55.03;101485.59;5074821;28;20028;-65
2022/07/26 07:00:38;;;;;;;6.40;1.95;;;;;;;22.06;54.80;101484.78;5075325;28;20315;-65
2022/07/26 07:03:03;;;;;;;6.72;2.10;;;;;;;22.08;54.37;101493.44;5075056;28;20036;-66
2022/07/26 07:05:32;;;;;;;7.07;1.97;;;;;;;22.14;54.79;101489.38;5074653;28;20024;-67
2022/07/26 07:07:57;;;;;;;6.78;1.80;;;;;;;22.32;54.79;101486.97;5075440;28;20702;-66
2022/07/26 07:10:22;;;;;;;5.73;1.90;;;;;;;22.50;54.60;101495.09;5075586;28;20086;-65
2022/07/26 07:12:47;;;;;;;4.67;1.77;;;;;;;22.64;53.79;101500.00;5074636;28;20036;-66
2022/07/26 07:15:16;;;;;;;4.45;1.70;;;;;;;22.79;53.96;101502.25;5075214;28;20764;-66
2022/07/26 07:17:41;;;;;;;4.07;1.65;;;;;;;22.93;53.18;101504.47;5075101;28;20025;-65
2022/07/26 07:20:07;;;;;;;5.07;2.00;;;;;;;23.03;53.31;101500.97;5074056;28;20035;-65
2022/07/26 07:22:32;;;;;;;4.68;1.98;;;;;;;23.11;53.08;101501.13;5074989;28;20313;-70
2022/07/26 07:24:57;;;;;;;6.45;1.52;;;;;;;23.21;52.93;101501.13;5075468;28;20146;-70
2022/07/26 07:27:25;;;;;;;4.20;1.60;;;;;;;23.32;52.55;101504.47;5074482;28;20395;-70
2022/07/26 07:29:53;;;;;;;7.38;1.77;;;;;;;23.41;52.33;101504.59;5075108;28;20058;-67
2022/07/26 07:32:18;;;;;;;6.65;1.83;;;;;;;23.50;51.84;101506.38;5075343;28;20376;-70
2022/07/26 07:34:47;;;;;;;4.93;1.50;;;;;;;23.58;51.76;101498.50;5074208;28;20021;-69
2022/07/26 07:37:12;;;;;;;5.38;1.73;;;;;;;23.65;51.06;101498.78;5074852;28;20278;-77
2022/07/26 07:39:38;;;;;;;6.40;1.67;;;;;;;23.72;51.10;101497.22;5074386;28;20024;-77
2022/07/26 07:42:06;;;;;;;4.40;1.50;;;;;;;23.79;50.99;101500.13;5075061;28;20028;-78
2022/07/26 07:44:31;;;;;;;5.68;1.58;;;;;;;23.82;50.63;101505.16;5074993;28;20107;-66
2022/07/26 07:46:59;;;;;;;4.40;1.98;;;;;;;23.84;50.61;101511.19;5074208;28;20119;-68
2022/07/26 07:49:24;;;;;;;5.22;1.67;;;;;;;23.89;50.52;101511.59;5074884;28;20538;-66
2022/07/26 07:51:49;;;;;;;6.57;1.50;;;;;;;23.96;50.42;101511.84;5074491;28;20025;-67
2022/07/26 07:54:15;;;;;;;4.73;1.70;;;;;;;24.03;50.52;101511.09;5074282;28;20273;-67
2022/07/26 07:56:41;;;;;;;3.92;1.52;;;;;;;24.09;49.95;101491.88;5074334;28;20331;-67
2022/07/26 07:59:07;;;;;;;5.07;1.50;;;;;;;24.17;49.69;101507.09;5074783;28;20021;-67
2022/07/26 08:01:32;;;;;;;5.35;1.52;;;;;;;24.23;49.78;101506.50;5073541;28;20056;-67
2022/07/26 08:03:57;;;;;;;4.80;1.42;;;;;;;24.27;49.60;101515.91;5074746;28;20056;-67
2022/07/26 08:06:22;;;;;;;4.32;1.40;;;;;;;24.31;49.61;101519.09;5074453;28;20078;-67
2022/07/26 08:08:50;;;;;;;5.10;1.60;;;;;;;24.35;49.20;101516.97;5073591;28;20028;-67
2022/07/26 08:11:16;;;;;;;2.92;1.33;;;;;;;24.37;49.51;101525.63;5074553;28;20262;-67
2022/07/26 08:13:41;;;;;;;5.85;1.92;;;;;;;24.39;49.04;101526.34;5074009;28;20040;-67
2022/07/26 08:16:07;;;;;;;4.65;1.38;;;;;;;24.40;49.17;101536.00;5073557;28;20073;-67
2022/07/26 08:18:32;;;;;;;4.95;1.45;;;;;;;24.42;49.16;101536.69;5074094;28;20020;-67
2022/07/26 08:20:58;;;;;;;3.55;1.30;;;;;;;24.42;48.90;101534.84;5074356;28;20388;-67
2022/07/26 08:23:23;;;;;;;4.30;1.17;;;;;;;24.43;49.01;101535.69;5073666;28;20491;-67
2022/07/26 08:25:49;;;;;;;3.80;1.20;;;;;;;24.47;49.40;101546.88;5074007;28;20032;-67
2022/07/26 08:28:15;;;;;;;3.85;1.33;;;;;;;24.47;49.12;101557.53;5074362;28;20025;-67
2022/07/26 08:30:41;;;;;;;4.65;1.38;;;;;;;24.48;49.37;101557.38;5073006;28;20028;-67
2022/07/26 08:33:06;;;;;;;2.58;1.20;;;;;;;24.50;49.00;101558.09;5073163;28;20399;-67
2022/07/26 08:35:31;;;;;;;3.80;1.38;;;;;;;24.48;49.11;101560.03;5073700;28;20460;-74
2022/07/26 08:37:59;;;;;;;4.30;1.17;;;;;;;24.36;49.64;101564.75;5073566;28;20032;-70
2022/07/26 08:40:25;;;;;;;4.35;1.40;;;;;;;24.33;50.25;101561.56;5074024;28;20674;-69
2022/07/26 08:42:55;;;;;;;3.63;1.30;;;;;;;24.32;49.70;101566.03;5072945;28;20032;-70
2022/07/26 08:45:30;;;;;;;2.95;1.13;;;;;;;24.33;49.96;101564.22;5073808;28;20467;-68
2022/07/26 08:48:02;;;;;;;3.05;1.10;;;;;;;24.39;49.88;101567.13;5073717;28;20028;-71
2022/07/26 08:50:28;;;;;;;2.85;1.10;;;;;;;24.48;49.54;101573.38;5073183;28;20025;-71
2022/07/26 08:52:59;;;;;;;2.75;1.10;;;;;;;24.54;49.45;101564.78;5073747;28;20035;-71
2022/07/26 08:55:25;;;;;;;2.92;1.10;;;;;;;24.58;49.52;101574.19;5073401;28;20119;-71
2022/07/26 08:57:50;;;;;;;3.30;1.10;;;;;;;24.58;48.99;101565.38;5072386;28;20040;-71
2022/07/26 09:00:21;;;;;;;3.00;1.20;;;;;;;24.63;49.19;101573.75;5073382;28;20025;-71
2022/07/26 09:02:47;;;;;;;3.20;1.20;;;;;;;24.64;49.12;101572.75;5073095;28;20049;-71
2022/07/26 09:05:24;;;;;;;2.85;1.00;;;;;;;24.64;49.08;101572.75;5072721;28;20372;-71
2022/07/26 09:07:50;;;;;;;2.92;1.05;;;;;;;24.66;49.33;101577.91;5073120;28;20025;-71
2022/07/26 09:10:15;;;;;;;3.17;1.07;;;;;;;24.65;48.82;101579.75;5073381;28;20150;-71
2022/07/26 09:12:41;;;;;;;2.50;0.90;;;;;;;24.66;48.76;101583.25;5072134;28;20741;-71
2022/07/26 09:15:17;;;;;;;3.17;1.05;;;;;;;24.66;49.26;101577.91;5072798;28;20057;-71
2022/07/26 09:17:45;;;;;;;3.35;1.00;;;;;;;24.68;48.68;101571.47;5072992;28;20017;-71
2022/07/26 09:20:14;;;;;;;2.78;1.08;;;;;;;24.70;48.81;101585.47;5072330;28;20487;-71
2022/07/26 09:23:00;;;;;;;3.88;1.13;;;;;;;24.70;48.72;101580.13;5072833;28;20021;-71
2022/07/26 09:25:28;;;;;;;3.83;1.00;;;;;;;24.70;48.86;101588.13;5072144;28;20408;-71
2022/07/26 09:27:53;;;;;;;2.70;1.20;;;;;;;24.70;49.00;101587.31;5073052;28;20157;-71
2022/07/26 09:30:19;;;;;;;3.53;1.00;;;;;;;24.70;48.92;101593.47;5073156;28;20048;-71
2022/07/26 09:33:00;;;;;;;2.70;1.02;;;;;;;24.70;48.72;101593.47;5072038;28;20020;-71
2022/07/26 09:35:26;;;;;;;3.22;1.00;;;;;;;24.71;48.53;101589.81;5072940;28;20109;-71
2022/07/26 09:37:52;;;;;;;3.10;1.00;;;;;;;24.72;48.97;101598.66;5072494;28;20383;-71
2022/07/26 09:40:18;;;;;;;3.05;0.90;;;;;;;24.71;48.78;101599.66;5072103;28;20104;-71
2022/07/26 09:43:04;;;;;;;3.22;1.10;;;;;;;24.71;49.12;101607.66;5072519;28;20020;-71
2022/07/26 09:45:32;;;;;;;3.78;1.10;;;;;;;24.72;49.16;101606.63;5072619;28;20043;-72
2022/07/26 09:47:57;;;;;;;3.22;0.98;;;;;;;24.71;49.34;101621.81;5072029;28;20028;-71
2022/07/26 09:50:25;;;;;;;2.78;1.10;;;;;;;24.72;49.11;101619.97;5072685;28;20074;-71
2022/07/26 09:53:06;;;;;;;1.98;0.82;;;;;;;24.71;48.95;101613.81;5072510;28;20024;-72
2022/07/26 09:55:33;;;;;;;3.08;1.00;;;;;;;24.73;48.64;101614.47;5071894;28;20036;-72
2022/07/26 09:58:02;;;;;;;2.85;0.90;;;;;;;24.74;49.02;101620.69;5072695;28;20059;-72
2022/07/26 10:00:28;;;;;;;4.07;1.00;;;;;;;24.73;48.80;101619.00;5072037;28;20023;-74
2022/07/26 10:02:53;;;;;;;4.90;1.10;;;;;;;24.71;48.86;101616.47;5072431;28;20028;-71
2022/07/26 10:05:20;;;;;;;3.53;1.10;;;;;;;24.71;49.12;101628.97;5072694;28;20472;-71
2022/07/26 10:07:46;;;;;;;4.00;0.90;;;;;;;24.70;48.94;101624.63;5071587;28;20029;-69
2022/07/26 10:10:21;;;;;;;3.38;0.90;;;;;;;24.67;49.35;101622.25;5073120;28;20035;-71
2022/07/26 10:12:49;;;;;;;2.80;1.05;;;;;;;24.68;48.94;101634.59;5072207;28;20097;-70
2022/07/26 10:15:39;;;;;;;4.00;1.00;;;;;;;24.63;49.37;101627.88;5071430;28;20033;-71
2022/07/26 10:18:07;;;;;;;2.28;0.80;;;;;;;24.62;49.10;101633.34;5072733;28;20031;-72
2022/07/26 10:20:40;;;;;;;1.88;0.98;;;;;;;24.65;49.04;101638.38;5072313;28;20028;-72
2022/07/26 10:23:43;;;;;;;4.22;1.10;;;;;;;24.65;49.42;101643.72;5071649;28;20056;-70
2022/07/26 10:26:12;;;;;;;2.67;0.90;;;;;;;24.63;49.50;101648.38;5073527;28;20025;-71
2022/07/26 10:28:38;;;;;;;2.53;0.77;;;;;;;24.63;49.24;101651.84;5072032;28;20160;-72
2022/07/26 10:31:22;;;;;;;2.85;1.15;;;;;;;24.63;49.70;101649.19;5072276;28;20111;-72
2022/07/26 10:33:49;;;;;;;1.33;0.60;;;;;;;24.66;49.66;101660.53;5072134;28;20060;-71
2022/07/26 10:36:25;;;;;;;3.47;0.98;;;;;;;24.65;49.66;101653.53;5071265;28;20361;-70
2022/07/26 10:39:21;;;;;;;1.90;0.80;;;;;;;24.63;49.70;101649.19;5072237;28;20029;-70
2022/07/26 10:41:57;;;;;;;2.60;1.10;;;;;;;24.64;50.06;101652.69;5051509;28;20032;-71
2022/07/26 10:44:26;;;;;;;2.58;0.90;;;;;;;24.65;49.54;101656.22;5071492;28;20028;-70
2022/07/26 10:47:06;;;;;;;2.42;0.90;;;;;;;24.63;49.66;101659.84;5071808;28;20519;-69
2022/07/26 10:49:34;;;;;;;2.08;0.90;;;;;;;24.63;49.36;101664.34;5071280;28;20032;-69
2022/07/26 10:52:12;;;;;;;3.17;1.10;;;;;;;24.61;49.33;101650.34;5072014;28;20108;-70
2022/07/26 10:54:55;;;;;;;3.13;1.10;;;;;;;24.65;49.72;101661.53;5072139;28;20116;-72
2022/07/26 10:57:26;;;;;;;3.30;1.03;;;;;;;24.62;49.55;101660.88;5074939;28;20043;-72
2022/07/26 10:59:56;;;;;;;3.63;1.00;;;;;;;24.61;49.38;101667.16;5075660;28;20036;-72
2022/07/26 11:02:30;;;;;;;1.75;0.80;;;;;;;24.59;49.36;101671.81;5074682;28;20046;-73
2022/07/26 11:05:15;;;;;;;3.20;1.05;;;;;;;24.58;49.47;101670.13;5075028;28;20031;-68
2022/07/26 11:07:55;;;;;;;2.03;0.88;;;;;;;24.56;49.34;101671.22;5075214;28;20032;-68
2022/07/26 11:10:27;;;;;;;2.80;0.90;;;;;;;24.57;49.40;101675.59;5075742;28;20028;-67
2022/07/26 11:13:06;;;;;;;2.63;0.80;;;;;;;24.57;49.80;101684.41;5074822;28;20115;-69
2022/07/26 11:15:35;;;;;;;2.92;1.00;;;;;;;24.57;49.53;101689.75;5075052;28;20055;-68
2022/07/26 11:18:11;;;;;;;2.30;0.90;;;;;;;24.58;49.82;101691.44;5074624;28;20025;-74
2022/07/26 11:20:37;;;;;;;2.35;0.80;;;;;;;24.50;49.56;101687.78;5075183;28;20049;-71
2022/07/26 11:23:03;;;;;;;2.47;0.80;;;;;;;24.49;49.62;101699.44;5075508;28;20020;-72
2022/07/26 11:25:28;;;;;;;2.00;0.75;;;;;;;24.49;50.20;101705.59;5074367;28;20035;-72
2022/07/26 11:28:01;;;;;;;1.98;0.80;;;;;;;24.52;50.12;101707.16;5075270;28;20036;-73
2022/07/26 11:30:27;;;;;;;4.13;1.03;;;;;;;24.55;50.01;101699.69;5075250;28;20044;-72